Time;durP1;ratioP1;P1;durP2;ratioP2;P2;SDS_P1;SDS_P2;PMS_P1;PMS_P2;Temp;Humidity;BMP_temperature;BMP_pressure;BME280_temperature;BME280_humidity;BME280_pressure;Samples;Min_cycle;Max_cycle;Signal;HPM_P1;HPM_P2
2022/07/17 00:00:43;;;;;;;7.40;2.20;;;;;;;10.27;100.00;100216.75;105142;1271;73039;-74
2022/07/17 00:03:31;;;;;;;7.60;2.10;;;;;;;10.28;100.00;100216.13;105201;1271;60541;-75
2022/07/17 00:06:20;;;;;;;8.30;2.40;;;;;;;10.29;100.00;100216.64;105125;1271;60436;-76
2022/07/17 00:09:08;;;;;;;6.90;2.50;;;;;;;10.31;100.00;100216.30;105112;1271;75190;-77
2022/07/17 00:11:56;;;;;;;9.20;2.80;;;;;;;10.31;100.00;100216.27;104939;1271;67860;-75
2022/07/17 00:14:44;;;;;;;9.70;3.10;;;;;;;10.33;100.00;100218.94;105251;1271;72839;-75
2022/07/17 00:17:34;;;;;;;9.00;2.60;;;;;;;10.37;100.00;100217.08;105262;1271;60558;-77
2022/07/17 00:20:25;;;;;;;8.30;2.20;;;;;;;10.40;100.00;100218.11;105083;1271;60366;-76
2022/07/17 00:23:13;;;;;;;6.70;2.20;;;;;;;10.44;100.00;100217.16;105065;1271;72995;-75
2022/07/17 00:26:01;;;;;;;7.60;2.10;;;;;;;10.47;100.00;100219.40;105084;1271;66809;-74
2022/07/17 00:28:50;;;;;;;7.00;2.00;;;;;;;10.50;100.00;100226.58;105308;1271;71631;-75
2022/07/17 00:31:38;;;;;;;6.90;2.00;;;;;;;10.53;100.00;100222.83;105070;1271;61367;-76
2022/07/17 00:34:27;;;;;;;8.20;2.30;;;;;;;10.55;100.00;100219.31;105073;1271;60518;-76
2022/07/17 00:37:15;;;;;;;9.30;2.30;;;;;;;10.57;100.00;100219.34;105056;1271;73188;-76
2022/07/17 00:40:03;;;;;;;8.20;2.80;;;;;;;10.61;100.00;100218.36;105010;1271;68554;-76
2022/07/17 00:42:52;;;;;;;6.10;1.90;;;;;;;10.65;100.00;100217.84;104967;1271;74681;-74
2022/07/17 00:45:40;;;;;;;9.10;2.20;;;;;;;10.71;100.00;100215.41;105026;1271;60463;-74
2022/07/17 00:48:30;;;;;;;7.80;2.10;;;;;;;10.77;100.00;100218.56;105098;1271;61146;-75
2022/07/17 00:51:18;;;;;;;5.90;1.80;;;;;;;10.82;100.00;100221.18;105097;1271;74375;-76
2022/07/17 00:54:09;;;;;;;9.20;1.80;;;;;;;10.86;100.00;100219.95;105073;1271;68593;-76
2022/07/17 00:57:00;;;;;;;8.30;1.90;;;;;;;10.92;100.00;100220.09;105069;1271;73170;-75
2022/07/17 00:59:48;;;;;;;6.70;1.80;;;;;;;10.96;100.00;100216.40;105078;1271;60548;-76
2022/07/17 01:02:37;;;;;;;5.40;1.70;;;;;;;11.00;100.00;100217.67;105120;1271;60609;-76
2022/07/17 01:05:26;;;;;;;6.80;2.00;;;;;;;11.04;100.00;100217.71;105132;1271;73855;-76
2022/07/17 01:08:14;;;;;;;7.20;2.00;;;;;;;11.08;100.00;100214.75;105007;1271;67936;-77
2022/07/17 01:11:04;;;;;;;6.60;1.80;;;;;;;11.13;100.00;100213.11;105118;1271;73480;-77
2022/07/17 01:13:52;;;;;;;5.60;1.60;;;;;;;11.17;100.00;100218.66;105121;1271;60482;-77
2022/07/17 01:16:43;;;;;;;6.30;1.80;;;;;;;11.21;100.00;100222.45;105232;1271;60440;-77
2022/07/17 01:19:31;;;;;;;6.20;1.60;;;;;;;11.24;100.00;100218.63;105241;1271;74586;-76
2022/07/17 01:22:21;;;;;;;7.00;1.60;;;;;;;11.28;100.00;100222.12;105289;1271;66883;-77
2022/07/17 01:25:09;;;;;;;8.00;1.90;;;;;;;11.30;100.00;100223.57;105198;1271;73050;-77
2022/07/17 01:27:58;;;;;;;8.20;1.70;;;;;;;11.31;100.00;100227.71;105447;1271;60966;-77
2022/07/17 01:30:51;;;;;;;8.20;1.80;;;;;;;11.34;100.00;100228.23;105376;1271;60558;-77
2022/07/17 01:33:41;;;;;;;8.20;1.60;;;;;;;11.36;100.00;100226.84;104974;1271;73895;-77
2022/07/17 01:36:29;;;;;;;5.20;1.60;;;;;;;11.36;100.00;100223.03;104899;1271;68381;-75
2022/07/17 01:39:17;;;;;;;7.20;1.70;;;;;;;11.37;100.00;100221.75;104949;1271;74484;-76
2022/07/17 01:42:06;;;;;;;7.60;1.70;;;;;;;11.38;100.00;100222.94;105087;1271;60420;-76
2022/07/17 01:44:55;;;;;;;6.30;1.50;;;;;;;11.38;100.00;100222.52;105133;1271;60530;-76
2022/07/17 01:47:43;;;;;;;6.20;1.40;;;;;;;11.38;100.00;100220.42;105245;1271;73884;-75
2022/07/17 01:50:31;;;;;;;8.40;1.50;;;;;;;11.37;100.00;100223.38;105106;1271;69619;-73
2022/07/17 01:53:20;;;;;;;8.10;1.60;;;;;;;11.36;100.00;100220.05;105046;1271;74389;-75
2022/07/17 01:56:08;;;;;;;7.20;1.60;;;;;;;11.35;100.00;100218.87;105341;1271;60467;-75
2022/07/17 01:58:56;;;;;;;9.30;1.80;;;;;;;11.34;100.00;100216.15;105059;1271;60462;-75
2022/07/17 02:01:43;;;;;;;8.10;1.90;;;;;;;11.31;100.00;100215.79;105039;1270;74525;-75
2022/07/17 02:04:36;;;;;;;5.70;1.30;;;;;;;11.28;100.00;100216.77;105011;1271;66757;-75
2022/07/17 02:07:24;;;;;;;6.20;1.60;;;;;;;11.24;100.00;100221.30;105014;1271;73160;-75
2022/07/17 02:10:14;;;;;;;9.20;1.40;;;;;;;11.21;100.00;100219.95;105362;1271;61124;-74
2022/07/17 02:13:03;;;;;;;9.30;1.70;;;;;;;11.18;100.00;100225.75;105230;1271;61911;-74
2022/07/17 02:15:51;;;;;;;5.70;1.50;;;;;;;11.13;100.00;100229.98;105066;1271;74742;-75
2022/07/17 02:18:42;;;;;;;8.80;1.80;;;;;;;11.09;100.00;100232.77;105183;1272;68648;-77
2022/07/17 02:21:29;;;;;;;7.70;1.40;;;;;;;11.05;100.00;100235.05;105039;1271;74356;-75
2022/07/17 02:24:18;;;;;;;5.50;1.50;;;;;;;11.01;100.00;100240.13;105281;1271;60459;-76
2022/07/17 02:27:06;;;;;;;7.50;1.40;;;;;;;10.97;100.00;100239.92;104964;1271;60460;-74
2022/07/17 02:29:55;;;;;;;7.40;1.70;;;;;;;10.93;100.00;100242.88;105312;1271;73664;-77
2022/07/17 02:32:44;;;;;;;7.30;1.50;;;;;;;10.89;100.00;100246.03;104979;1271;67144;-76
2022/07/17 02:35:34;;;;;;;7.20;1.50;;;;;;;10.85;100.00;100251.51;104910;1271;73476;-75
2022/07/17 02:38:22;;;;;;;8.70;1.50;;;;;;;10.81;100.00;100258.02;105065;1271;60356;-75
2022/07/17 02:41:10;;;;;;;10.20;1.60;;;;;;;10.77;100.00;100262.60;105266;1271;61602;-75
2022/07/17 02:43:58;;;;;;;8.30;1.70;;;;;;;10.74;100.00;100261.89;105109;1271;74425;-77
2022/07/17 02:46:46;;;;;;;7.50;1.80;;;;;;;10.72;100.00;100264.52;105103;1271;69554;-76
2022/07/17 02:49:33;;;;;;;5.70;1.30;;;;;;;10.70;100.00;100268.39;105340;1271;73450;-75
2022/07/17 02:52:23;;;;;;;7.50;1.60;;;;;;;10.69;100.00;100270.45;105039;1271;60476;-75
2022/07/17 02:55:11;;;;;;;8.10;1.50;;;;;;;10.67;100.00;100272.53;105024;1271;61747;-75
2022/07/17 02:57:59;;;;;;;6.30;1.40;;;;;;;10.66;100.00;100270.86;105062;1271;74635;-77
2022/07/17 03:00:47;;;;;;;6.70;1.50;;;;;;;10.63;100.00;100267.48;104962;1271;66754;-75
2022/07/17 03:03:35;;;;;;;7.00;1.50;;;;;;;10.62;100.00;100274.67;105073;1271;73472;-75
2022/07/17 03:06:23;;;;;;;6.20;1.50;;;;;;;10.61;100.00;100275.48;105073;1271;61512;-76
2022/07/17 03:09:12;;;;;;;7.00;1.60;;;;;;;10.61;100.00;100277.27;105079;1271;60437;-76
2022/07/17 03:12:00;;;;;;;6.40;1.60;;;;;;;10.60;100.00;100275.54;105109;1271;73204;-77
2022/07/17 03:14:48;;;;;;;6.40;1.60;;;;;;;10.60;100.00;100273.95;105066;1271;67198;-76
2022/07/17 03:17:39;;;;;;;5.30;1.20;;;;;;;10.60;100.00;100275.91;104926;1271;74447;-76
2022/07/17 03:20:27;;;;;;;5.80;1.60;;;;;;;10.61;100.00;100282.22;104990;1271;60457;-76
2022/07/17 03:23:15;;;;;;;5.60;1.40;;;;;;;10.63;100.00;100279.77;104957;1271;60847;-74
2022/07/17 03:26:04;;;;;;;6.30;1.50;;;;;;;10.59;100.00;100279.35;104916;1271;73588;-75
2022/07/17 03:28:52;;;;;;;6.00;1.40;;;;;;;10.64;100.00;100284.79;105163;1271;68324;-75
2022/07/17 03:31:42;;;;;;;6.00;1.70;;;;;;;10.66;100.00;100285.00;105138;1271;71946;-76
2022/07/17 03:34:31;;;;;;;7.20;1.40;;;;;;;10.68;100.00;100285.75;105049;1271;60674;-76
2022/07/17 03:37:19;;;;;;;7.00;1.50;;;;;;;10.71;100.00;100291.34;105181;1271;60386;-76
2022/07/17 03:40:08;;;;;;;5.40;1.40;;;;;;;10.74;100.00;100293.27;105204;1271;75534;-75
2022/07/17 03:42:56;;;;;;;6.70;1.70;;;;;;;10.78;100.00;100297.45;105059;1273;68038;-77
2022/07/17 03:45:44;;;;;;;7.70;1.40;;;;;;;10.82;100.00;100300.15;105156;1271;73163;-76
2022/07/17 03:48:34;;;;;;;5.60;1.50;;;;;;;10.87;100.00;100307.56;105464;1271;60899;-77
2022/07/17 03:51:22;;;;;;;8.40;1.70;;;;;;;10.93;100.00;100309.14;105230;1271;60463;-78
2022/07/17 03:54:10;;;;;;;8.00;1.60;;;;;;;10.94;100.00;100307.77;105380;1271;74116;-76
2022/07/17 03:57:00;;;;;;;6.30;1.30;;;;;;;11.05;100.00;100316.72;105043;1271;67425;-75
2022/07/17 03:59:48;;;;;;;8.30;1.40;;;;;;;11.12;100.00;100317.96;105156;1271;72410;-77
2022/07/17 04:02:36;;;;;;;7.20;1.50;;;;;;;11.20;100.00;100322.89;105339;1271;60440;-76
2022/07/17 04:05:24;;;;;;;7.70;1.30;;;;;;;11.27;100.00;100316.32;105365;1271;60454;-75
2022/07/17 04:08:12;;;;;;;7.50;1.10;;;;;;;11.34;100.00;100320.73;104882;1271;73181;-75
2022/07/17 04:11:01;;;;;;;5.60;1.10;;;;;;;11.43;100.00;100322.36;104994;1271;68493;-77
2022/07/17 04:13:56;;;;;;;6.70;1.30;;;;;;;11.51;100.00;100330.61;105373;1271;72583;-76
2022/07/17 04:16:44;;;;;;;7.00;1.40;;;;;;;11.58;100.00;100329.05;105145;1271;60428;-77
2022/07/17 04:19:32;;;;;;;6.20;1.30;;;;;;;11.64;100.00;100330.70;105001;1271;60896;-78
2022/07/17 04:22:21;;;;;;;8.50;1.60;;;;;;;11.71;100.00;100334.41;105078;1272;73936;-77
2022/07/17 04:25:09;;;;;;;10.60;1.50;;;;;;;11.79;100.00;100336.84;105308;1271;67860;-78
2022/07/17 04:27:57;;;;;;;5.60;1.40;;;;;;;11.88;100.00;100333.27;105244;1271;71279;-78
2022/07/17 04:30:46;;;;;;;6.30;1.40;;;;;;;11.99;100.00;100333.33;105190;1271;60495;-78
2022/07/17 04:33:34;;;;;;;6.20;1.30;;;;;;;12.11;100.00;100339.86;105222;1271;60991;-77
2022/07/17 04:36:22;;;;;;;7.60;1.50;;;;;;;12.23;100.00;100339.08;105642;1271;74115;-77
2022/07/17 04:39:10;;;;;;;5.30;1.30;;;;;;;12.37;100.00;100344.38;105473;1271;68581;-76
2022/07/17 04:41:58;;;;;;;6.30;1.20;;;;;;;12.51;99.97;100336.80;105009;1271;74973;-77
2022/07/17 04:44:46;;;;;;;5.40;1.50;;;;;;;12.71;99.72;100339.85;105091;1271;60396;-77
2022/07/17 04:47:34;;;;;;;9.20;1.50;;;;;;;12.98;98.67;100341.20;105136;1272;60482;-74
2022/07/17 04:50:23;;;;;;;5.70;1.50;;;;;;;13.34;97.42;100343.53;105228;1271;74255;-77
2022/07/17 04:53:10;;;;;;;5.70;1.10;;;;;;;13.80;95.62;100342.77;105331;1271;69707;-77
2022/07/17 04:55:59;;;;;;;6.00;1.20;;;;;;;14.52;93.21;100346.69;105270;1271;74084;-76
2022/07/17 04:58:47;;;;;;;6.80;1.40;;;;;;;15.35;89.58;100348.59;105246;1271;60692;-73
2022/07/17 05:01:35;;;;;;;6.40;1.60;;;;;;;16.15;86.31;100348.27;104971;1271;60465;-77
2022/07/17 05:04:23;;;;;;;7.20;1.50;;;;;;;17.11;82.68;100350.63;105209;1271;73621;-76
2022/07/17 05:07:15;;;;;;;5.50;1.20;;;;;;;17.90;77.91;100355.88;105179;1271;69404;-76
2022/07/17 05:10:05;;;;;;;6.00;1.10;;;;;;;18.65;73.86;100355.79;105207;1271;71738;-76
2022/07/17 05:12:53;;;;;;;6.50;1.30;;;;;;;19.19;71.01;100354.23;105142;1271;60806;-78
2022/07/17 05:15:41;;;;;;;5.30;1.10;;;;;;;19.86;68.79;100356.71;105043;1273;60958;-77
2022/07/17 05:18:29;;;;;;;5.60;1.20;;;;;;;20.57;65.99;100356.69;105220;1272;72804;-77
2022/07/17 05:21:17;;;;;;;4.90;0.90;;;;;;;21.20;63.63;100357.36;105287;1272;69614;-76
2022/07/17 05:24:06;;;;;;;7.10;1.20;;;;;;;21.92;61.12;100362.17;105270;1272;430586;-76
2022/07/17 05:26:54;;;;;;;6.30;1.20;;;;;;;22.55;56.52;100362.02;105254;1271;60475;-76
2022/07/17 05:29:42;;;;;;;5.30;1.00;;;;;;;23.14;54.70;100360.98;105233;1271;60469;-75
2022/07/17 05:32:30;;;;;;;5.80;0.90;;;;;;;23.79;53.61;100359.98;104992;1272;74021;-77
2022/07/17 05:35:18;;;;;;;6.10;1.10;;;;;;;24.46;50.85;100358.70;105021;1272;69973;-76
2022/07/17 05:38:06;;;;;;;5.60;0.90;;;;;;;25.06;49.01;100360.27;105117;1271;72290;-75
2022/07/17 05:40:53;;;;;;;5.30;0.90;;;;;;;25.60;47.61;100358.98;105140;1271;60439;-76
2022/07/17 05:43:42;;;;;;;5.40;1.10;;;;;;;26.20;46.69;100368.36;105190;1272;60953;-76
2022/07/17 05:46:30;;;;;;;6.10;1.00;;;;;;;26.81;45.36;100368.96;105213;1271;75354;-76
2022/07/17 05:49:18;;;;;;;6.00;1.00;;;;;;;27.41;43.13;100375.38;105223;1271;69422;-77
2022/07/17 05:52:06;;;;;;;4.80;0.80;;;;;;;27.91;41.37;100370.55;105160;1271;71990;-77
2022/07/17 05:54:55;;;;;;;5.80;0.80;;;;;;;27.70;40.40;100374.90;105352;1271;60612;-77
2022/07/17 05:57:42;;;;;;;4.90;0.90;;;;;;;26.61;41.94;100381.71;105180;1276;60341;-76
2022/07/17 06:00:31;;;;;;;5.80;0.90;;;;;;;25.60;43.43;100383.45;105106;1276;74408;-77
2022/07/17 06:03:19;;;;;;;5.50;0.80;;;;;;;24.99;43.66;100392.28;104780;1276;69205;-76
2022/07/17 06:06:07;;;;;;;4.40;0.70;;;;;;;24.23;46.02;100388.02;104964;1276;74349;-75
2022/07/17 06:08:55;;;;;;;4.40;0.90;;;;;;;24.16;47.34;100393.92;104913;1276;60459;-75
2022/07/17 06:11:43;;;;;;;5.50;1.00;;;;;;;25.36;45.35;100393.58;104919;1276;61885;-78
2022/07/17 06:14:32;;;;;;;4.80;0.90;;;;;;;26.65;42.22;100395.91;104910;1277;72418;-76
2022/07/17 06:17:20;;;;;;;5.70;0.90;;;;;;;27.63;39.87;100390.56;104922;1276;66823;-77
2022/07/17 06:20:09;;;;;;;5.50;0.90;;;;;;;28.37;38.81;100385.63;105246;1276;73335;-75
2022/07/17 06:22:57;;;;;;;6.00;0.90;;;;;;;28.67;37.28;100399.96;105362;1276;60618;-76
2022/07/17 06:25:46;;;;;;;6.20;1.20;;;;;;;27.80;38.49;100409.02;105121;1276;60679;-79
2022/07/17 06:28:33;;;;;;;5.90;1.10;;;;;;;26.65;40.76;100415.14;105266;1272;75549;-77
2022/07/17 06:31:22;;;;;;;6.70;1.20;;;;;;;25.63;42.89;100420.80;105072;1271;67807;-76
2022/07/17 06:34:12;;;;;;;5.40;1.10;;;;;;;24.50;45.08;100422.61;105261;1271;73919;-77
2022/07/17 06:37:00;;;;;;;5.90;1.10;;;;;;;24.12;46.34;100423.37;105126;1271;60551;-77
2022/07/17 06:39:49;;;;;;;22.90;17.50;;;;;;;23.66;47.40;100423.44;105076;1273;61350;-68
2022/07/17 06:42:37;;;;;;;8.60;3.60;;;;;;;24.25;46.64;100423.90;105192;1271;73990;-74
2022/07/17 06:45:26;;;;;;;6.50;2.10;;;;;;;24.55;45.57;100425.54;105103;1271;69576;-72
2022/07/17 06:48:14;;;;;;;6.50;1.30;;;;;;;24.34;46.76;100427.77;105281;1271;74385;-76
2022/07/17 06:51:02;;;;;;;5.80;1.20;;;;;;;24.84;45.52;100430.52;105232;1272;59723;-77
2022/07/17 06:53:50;;;;;;;5.70;1.00;;;;;;;25.98;43.68;100429.69;105369;1271;60559;-74
2022/07/17 06:56:38;;;;;;;5.20;0.90;;;;;;;26.01;42.36;100429.48;105142;1271;72481;-78
2022/07/17 06:59:27;;;;;;;4.40;0.80;;;;;;;26.69;41.06;100436.23;105413;1271;67756;-80
2022/07/17 07:02:15;;;;;;;3.50;0.70;;;;;;;26.63;40.92;100438.60;105561;1271;73992;-77
2022/07/17 07:05:04;;;;;;;5.10;1.00;;;;;;;25.94;41.84;100440.77;105872;1273;60436;-78
2022/07/17 07:07:52;;;;;;;5.50;1.10;;;;;;;26.18;41.62;100443.45;105963;1271;60459;-79
2022/07/17 07:10:40;;;;;;;4.80;0.90;;;;;;;27.26;39.26;100447.13;105853;1271;74148;-79
2022/07/17 07:13:29;;;;;;;6.50;1.00;;;;;;;28.36;37.24;100443.81;105778;1271;66790;-78
2022/07/17 07:16:17;;;;;;;6.40;0.80;;;;;;;29.34;34.19;100445.08;105456;1271;70279;-77
2022/07/17 07:19:06;;;;;;;6.60;1.00;;;;;;;30.20;32.40;100448.38;105399;1271;60488;-78
2022/07/17 07:21:54;;;;;;;5.70;0.80;;;;;;;30.68;31.59;100446.05;105740;1271;61307;-78
2022/07/17 07:24:42;;;;;;;7.10;1.10;;;;;;;30.98;30.41;100447.74;106229;1271;74923;-78
2022/07/17 07:27:30;;;;;;;7.90;1.20;;;;;;;31.26;30.15;100456.04;105295;1274;68016;-75
2022/07/17 07:30:18;;;;;;;5.30;0.80;;;;;;;31.90;30.03;100451.48;105238;1271;72861;-77
2022/07/17 07:33:07;;;;;;;5.20;0.90;;;;;;;31.38;30.04;100459.16;105461;1271;60459;-78
2022/07/17 07:35:55;;;;;;;6.40;1.00;;;;;;;30.10;31.53;100457.54;105477;1271;60424;-78
2022/07/17 07:38:45;;;;;;;5.30;0.80;;;;;;;29.27;32.70;100455.63;105588;1271;73784;-75
2022/07/17 07:41:34;;;;;;;7.00;1.10;;;;;;;28.47;34.08;100461.50;105339;1271;66979;-78
2022/07/17 07:44:24;;;;;;;6.50;1.10;;;;;;;29.05;33.79;100456.48;105261;1271;71523;-76
2022/07/17 07:47:18;;;;;;;5.30;1.00;;;;;;;30.03;32.45;100453.96;105827;1271;60327;-78
2022/07/17 07:50:07;;;;;;;7.80;1.20;;;;;;;30.26;31.85;100456.91;105429;1272;59393;-77
2022/07/17 07:52:55;;;;;;;7.40;1.20;;;;;;;30.90;30.11;100456.11;105272;1273;74298;-78
2022/07/17 07:55:43;;;;;;;5.00;0.90;;;;;;;30.30;30.36;100461.02;105353;1271;68558;-80
2022/07/17 07:58:31;;;;;;;5.10;1.10;;;;;;;30.56;29.85;100457.23;105651;1271;72735;-77
2022/07/17 08:01:19;;;;;;;5.40;0.90;;;;;;;31.03;29.32;100460.93;105944;1271;60546;-79
2022/07/17 08:04:08;;;;;;;5.50;0.90;;;;;;;31.76;28.69;100462.17;105164;1271;61578;-77
2022/07/17 08:06:56;;;;;;;6.10;1.00;;;;;;;32.18;28.47;100465.45;105424;1273;75560;-78
2022/07/17 08:09:44;;;;;;;6.60;0.90;;;;;;;30.94;29.45;100465.36;105584;1272;69212;-77
2022/07/17 08:12:32;;;;;;;6.10;1.00;;;;;;;29.48;30.70;100477.09;105277;1272;71495;-76
2022/07/17 08:15:36;;;;;;;6.10;0.80;;;;;;;27.49;32.52;100487.41;105393;1271;60312;-80
2022/07/17 08:18:26;;;;;;;6.10;0.90;;;;;;;25.72;35.60;100485.93;105419;1272;60543;-80
2022/07/17 08:21:14;;;;;;;6.90;1.10;;;;;;;25.70;36.57;100489.98;105226;1271;73940;-80
2022/07/17 08:24:05;;;;;;;7.00;1.00;;;;;;;26.79;35.36;100482.70;105762;1271;69626;-81
2022/07/17 08:26:53;;;;;;;5.70;1.00;;;;;;;28.02;34.21;100482.09;105767;1271;71433;-81
2022/07/17 08:29:41;;;;;;;6.80;1.10;;;;;;;29.26;32.75;100479.90;105623;1271;60542;-81
2022/07/17 08:32:48;;;;;;;5.60;0.90;;;;;;;29.83;30.70;100483.66;105520;1271;61580;-80
2022/07/17 08:35:37;;;;;;;4.70;0.80;;;;;;;28.55;30.62;100484.80;105593;1271;74043;-82
2022/07/17 08:38:26;;;;;;;6.00;1.00;;;;;;;27.65;31.85;100486.95;105286;1272;67948;-82
2022/07/17 08:41:21;;;;;;;5.20;0.80;;;;;;;28.24;31.22;100473.19;105396;1271;71586;-81
2022/07/17 08:44:09;;;;;;;3.40;0.80;;;;;;;29.47;29.24;100469.77;105377;1277;60527;-79
2022/07/17 08:46:59;;;;;;;5.40;0.90;;;;;;;30.20;28.27;100472.95;105406;1276;60567;-82
2022/07/17 08:49:49;;;;;;;6.60;0.90;;;;;;;31.00;27.94;100473.17;105554;1276;73780;-84
2022/07/17 08:52:41;;;;;;;5.00;0.90;;;;;;;31.48;26.82;100477.04;106229;1276;68068;-82
2022/07/17 08:55:30;;;;;;;6.90;1.10;;;;;;;30.21;28.09;100482.73;106856;1276;71340;-82
2022/07/17 08:58:17;;;;;;;7.40;0.90;;;;;;;28.59;30.20;100486.61;106137;1276;60490;-81
2022/07/17 09:01:06;;;;;;;5.50;1.00;;;;;;;27.09;31.81;100492.97;105004;1277;60417;-80
2022/07/17 09:03:56;;;;;;;4.40;0.80;;;;;;;25.85;34.49;100490.29;105210;1276;72878;-81
2022/07/17 09:06:45;;;;;;;8.00;1.00;;;;;;;25.10;35.78;100487.88;105166;1276;67103;-81
2022/07/17 09:09:33;;;;;;;4.90;0.80;;;;;;;25.55;35.15;100480.91;105449;1276;71314;-80
2022/07/17 09:12:29;;;;;;;4.80;1.00;;;;;;;26.79;33.87;100475.93;104966;1277;60682;-80
2022/07/17 09:15:19;;;;;;;6.30;0.90;;;;;;;28.01;32.68;100472.72;105682;1271;60413;-81
2022/07/17 09:18:07;;;;;;;6.20;1.10;;;;;;;29.16;30.43;100468.02;105187;1272;72527;-82
2022/07/17 09:20:57;;;;;;;5.10;0.80;;;;;;;30.09;29.19;100469.68;105670;1271;67807;-81
2022/07/17 09:23:46;;;;;;;5.50;0.90;;;;;;;30.83;27.36;100468.98;105543;1271;71306;-82
2022/07/17 09:26:43;;;;;;;6.70;1.10;;;;;;;31.04;27.55;100468.92;105481;1276;60385;-82
2022/07/17 09:29:31;;;;;;;7.60;1.00;;;;;;;31.55;27.84;100478.33;105151;1276;60524;-81
2022/07/17 09:32:23;;;;;;;5.60;0.90;;;;;;;31.01;27.40;100484.06;105027;1277;73266;-80
2022/07/17 09:35:11;;;;;;;8.30;1.20;;;;;;;30.17;27.81;100490.35;105171;1276;67732;-80
2022/07/17 09:37:59;;;;;;;6.20;1.00;;;;;;;30.06;28.05;100485.27;105238;1276;72847;-83
2022/07/17 09:44:00;;;;;;;6.70;1.00;;;;;;;30.60;28.08;100479.72;105094;1276;60393;-81
2022/07/17 09:46:48;;;;;;;5.40;1.20;;;;;;;30.62;28.50;100478.73;105203;1276;72914;-81
2022/07/17 09:49:38;;;;;;;5.70;1.10;;;;;;;30.88;27.96;100475.58;105161;1276;67890;-81
2022/07/17 09:52:37;;;;;;;5.80;0.90;;;;;;;30.55;26.49;100478.34;105136;1276;71864;-81
2022/07/17 09:55:30;;;;;;;5.50;1.00;;;;;;;29.32;27.72;100486.96;105076;1276;60776;-81
2022/07/17 09:58:40;;;;;;;5.20;1.10;;;;;;;29.70;28.45;100485.42;105510;1271;62072;-80
2022/07/17 10:01:28;;;;;;;6.60;1.20;;;;;;;30.35;28.22;100480.70;105280;1271;71493;-82
2022/07/17 10:04:19;;;;;;;6.00;1.10;;;;;;;30.16;27.95;100477.93;105426;1271;68047;-80
2022/07/17 10:07:08;;;;;;;8.00;1.30;;;;;;;30.77;27.91;100476.29;105393;1271;72833;-82
2022/07/17 10:09:58;;;;;;;6.70;1.20;;;;;;;31.13;27.93;100485.20;105454;1271;60578;-82
2022/07/17 10:12:50;;;;;;;7.80;1.30;;;;;;;31.23;27.29;100487.09;105796;1271;60548;-82
2022/07/17 10:15:38;;;;;;;7.60;1.00;;;;;;;31.71;27.06;100487.02;105367;1271;72621;-75
2022/07/17 10:18:44;;;;;;;7.00;1.40;;;;;;;31.84;25.99;100487.33;105323;1271;69497;-74
2022/07/17 10:21:33;;;;;;;8.60;3.30;;;;;;;32.14;25.70;100481.96;105235;1271;71859;-76
2022/07/17 10:24:21;;;;;;;8.00;1.10;;;;;;;32.73;25.28;100482.67;105666;1271;60564;-80
2022/07/17 10:27:28;;;;;;;8.20;1.00;;;;;;;31.74;25.87;100496.71;105707;1271;60563;-80
2022/07/17 10:30:26;;;;;;;6.90;1.10;;;;;;;30.84;26.46;100494.30;105854;1272;74270;-80
2022/07/17 10:33:20;;;;;;;8.20;1.10;;;;;;;30.69;27.19;100495.90;105757;1271;65579;-82
2022/07/17 10:36:08;;;;;;;6.90;1.20;;;;;;;30.64;27.37;100486.30;105648;1271;74301;-80
2022/07/17 10:38:58;;;;;;;7.90;2.50;;;;;;;30.87;26.53;100486.16;105301;1271;60344;-82
2022/07/17 10:42:01;;;;;;;7.10;1.10;;;;;;;31.27;24.62;100495.34;105567;1271;60390;-80
2022/07/17 10:44:50;;;;;;;8.50;1.10;;;;;;;31.47;24.31;100494.08;105652;1271;74523;-81
2022/07/17 10:47:50;;;;;;;6.90;1.10;;;;;;;31.47;25.48;100493.40;105478;1271;68475;-81
2022/07/17 10:50:46;;;;;;;6.70;1.10;;;;;;;31.09;27.02;100497.86;105491;1271;72511;-80
2022/07/17 10:53:35;;;;;;;8.30;1.40;;;;;;;30.47;28.26;100498.31;105627;1271;59288;-81
2022/07/17 10:56:23;;;;;;;10.90;2.20;;;;;;;29.67;29.67;100499.45;105608;1271;60431;-80
2022/07/17 10:59:12;;;;;;;6.80;1.60;;;;;;;30.67;28.82;100495.45;106112;1271;74095;-79
2022/07/17 11:02:00;;;;;;;7.50;1.40;;;;;;;31.63;27.79;100502.15;107167;1271;68431;-79
2022/07/17 11:04:48;;;;;;;6.10;1.10;;;;;;;32.32;26.52;100506.67;106407;1271;74251;-80
2022/07/17 11:07:36;;;;;;;6.60;1.10;;;;;;;32.59;25.61;100505.73;105656;1271;61164;-79
2022/07/17 11:10:27;;;;;;;8.60;1.50;;;;;;;31.55;26.33;100512.86;105290;1271;61859;-81
2022/07/17 11:13:18;;;;;;;7.70;1.60;;;;;;;30.62;27.31;100508.83;105286;1271;72510;-79
2022/07/17 11:16:06;;;;;;;8.20;1.70;;;;;;;30.84;27.40;100506.69;105364;1271;67766;-80
2022/07/17 11:18:56;;;;;;;7.40;1.10;;;;;;;30.18;28.20;100505.99;105516;1271;72754;-81
2022/07/17 11:21:50;;;;;;;6.20;1.00;;;;;;;29.24;29.83;100509.04;105628;1271;60566;-78
2022/07/17 11:24:48;;;;;;;7.50;1.80;;;;;;;28.37;30.55;100509.19;105196;1271;60306;-80
2022/07/17 11:27:36;;;;;;;7.70;1.60;;;;;;;28.26;30.79;100507.59;105272;1271;73786;-81
2022/07/17 11:30:26;;;;;;;6.60;1.20;;;;;;;28.26;30.59;100511.15;105291;1271;66827;-80
2022/07/17 11:33:16;;;;;;;7.60;1.50;;;;;;;28.24;31.08;100510.74;105191;1271;72675;-80
2022/07/17 11:36:04;;;;;;;6.90;1.20;;;;;;;28.03;29.32;100513.59;105112;1271;60806;-80
2022/07/17 11:38:55;;;;;;;6.00;1.40;;;;;;;27.78;29.83;100513.83;105424;1271;60363;-78
2022/07/17 11:41:48;;;;;;;6.20;1.10;;;;;;;27.41;30.04;100507.18;105146;1271;72092;-79
2022/07/17 11:44:37;;;;;;;6.80;1.10;;;;;;;27.02;30.23;100510.48;105303;1271;66675;-79
2022/07/17 11:47:27;;;;;;;6.90;1.20;;;;;;;26.71;31.07;100503.26;105154;1271;72839;-80
2022/07/17 11:50:15;;;;;;;7.30;1.90;;;;;;;26.24;32.93;100514.16;105081;1271;60529;-79
2022/07/17 11:53:06;;;;;;;5.80;1.00;;;;;;;25.58;34.45;100518.86;105280;1271;60551;-81
2022/07/17 11:55:54;;;;;;;6.70;1.20;;;;;;;25.10;35.45;100517.66;105031;1271;72708;-81
2022/07/17 11:58:47;;;;;;;6.00;1.10;;;;;;;24.79;35.86;100515.33;105216;1271;68294;-81
2022/07/17 12:01:44;;;;;;;7.00;1.50;;;;;;;24.58;36.58;100516.55;105361;1271;74547;-81
2022/07/17 12:04:35;;;;;;;5.80;0.90;;;;;;;24.19;36.57;100522.05;105181;1271;60494;-81
2022/07/17 12:07:38;;;;;;;7.30;1.20;;;;;;;23.64;37.88;100534.34;105098;1271;59515;-82
2022/07/17 12:10:29;;;;;;;6.60;1.20;;;;;;;23.18;39.52;100537.58;105468;1271;73820;-81
2022/07/17 12:13:19;;;;;;;5.30;1.20;;;;;;;23.00;39.61;100536.23;105394;1271;69462;-80
2022/07/17 12:16:21;;;;;;;7.50;1.50;;;;;;;22.93;39.45;100537.36;105719;1271;71550;-82
2022/07/17 12:19:19;;;;;;;6.80;1.30;;;;;;;22.82;39.52;100529.41;105248;1271;60418;-80
2022/07/17 12:22:07;;;;;;;6.90;1.00;;;;;;;22.71;39.16;100528.73;105363;1271;60458;-82
2022/07/17 12:24:55;;;;;;;5.70;1.40;;;;;;;22.57;38.99;100520.34;105490;1271;73775;-82
2022/07/17 12:27:43;;;;;;;7.50;1.30;;;;;;;22.45;39.25;100522.17;105225;1271;68272;-82
2022/07/17 12:30:32;;;;;;;6.70;1.10;;;;;;;22.48;38.84;100528.15;105174;1271;73354;-81
2022/07/17 12:33:20;;;;;;;7.40;1.40;;;;;;;22.55;39.53;100526.96;105305;1271;60489;-81
2022/07/17 12:36:08;;;;;;;6.60;1.20;;;;;;;22.65;38.98;100523.41;105268;1271;60870;-82
2022/07/17 12:38:56;;;;;;;5.30;1.00;;;;;;;22.64;38.52;100524.08;105191;1271;75524;-80
2022/07/17 12:41:44;;;;;;;6.50;1.20;;;;;;;22.64;38.02;100524.29;105129;1272;66543;-81
2022/07/17 12:44:32;;;;;;;7.50;1.40;;;;;;;22.37;39.06;100533.39;105174;1271;71544;-82
2022/07/17 12:47:21;;;;;;;7.70;1.50;;;;;;;22.17;39.84;100530.73;105227;1271;60368;-82
2022/07/17 12:50:10;;;;;;;6.70;1.40;;;;;;;22.12;40.03;100534.98;105609;1272;60497;-82
2022/07/17 12:52:59;;;;;;;6.20;1.00;;;;;;;22.17;40.05;100528.10;105264;1271;74049;-81
2022/07/17 12:55:48;;;;;;;6.70;1.30;;;;;;;22.27;39.64;100526.30;105329;1271;67052;-82
2022/07/17 12:58:36;;;;;;;7.10;1.20;;;;;;;22.35;39.34;100531.13;105253;1271;71270;-81